createdAt,value
2022-10-23T00:01:15.379Z,38.88
2022-10-23T00:03:48.202Z,30.13
2022-10-23T00:06:21.959Z,30.67
2022-10-23T00:08:53.881Z,31.27
2022-10-23T00:11:29.883Z,31.13
2022-10-23T00:14:05.207Z,35.10
2022-10-23T00:16:37.511Z,25.00
2022-10-23T00:19:09.639Z,26.65
2022-10-23T00:21:41.723Z,25.65
2022-10-23T00:24:13.780Z,25.35
2022-10-23T00:26:45.702Z,29.63
2022-10-23T00:29:17.880Z,33.38
2022-10-23T00:31:49.793Z,30.73
2022-10-23T00:34:21.764Z,29.48
2022-10-23T00:36:53.650Z,25.88
2022-10-23T00:39:25.608Z,30.63
2022-10-23T00:41:57.524Z,28.77
2022-10-23T00:44:29.367Z,29.63
2022-10-23T00:47:01.286Z,26.00
2022-10-23T00:49:34.414Z,27.27
2022-10-23T00:52:10.278Z,24.55
2022-10-23T00:54:43.738Z,28.38
2022-10-23T00:57:16.216Z,27.27
2022-10-23T00:59:48.304Z,31.45
2022-10-23T01:02:20.978Z,22.50
2022-10-23T01:04:52.981Z,23.25
2022-10-23T01:07:46.432Z,27.45
2022-10-23T01:10:44.868Z,28.17
2022-10-23T01:13:50.447Z,23.63
2022-10-23T01:16:53.048Z,24.00
2022-10-23T01:19:38.305Z,26.67
2022-10-23T01:23:04.370Z,29.05
2022-10-23T01:26:35.700Z,27.52
2022-10-23T01:29:41.040Z,35.22
2022-10-23T01:32:22.363Z,28.30
2022-10-23T01:35:10.913Z,26.23
2022-10-23T01:37:46.043Z,28.80
2022-10-23T01:40:32.821Z,25.63
2022-10-23T01:43:38.809Z,27.65
2022-10-23T01:46:16.606Z,24.50
2022-10-23T01:48:53.405Z,28.83
2022-10-23T01:51:29.388Z,23.90
2022-10-23T01:54:01.639Z,26.58
2022-10-23T01:56:37.958Z,30.95
2022-10-23T01:59:16.541Z,30.75
2022-10-23T02:01:52.773Z,29.17
2022-10-23T02:04:36.920Z,29.17
2022-10-23T02:07:09.347Z,26.45
2022-10-23T02:09:41.355Z,25.60
2022-10-23T02:12:32.373Z,25.90
2022-10-23T02:15:14.388Z,25.05
2022-10-23T02:18:09.766Z,29.13
2022-10-23T02:20:49.988Z,23.05
2022-10-23T02:23:33.500Z,34.50
2022-10-23T02:26:24.503Z,23.58
2022-10-23T02:31:58.117Z,26.55
2022-10-23T02:34:30.097Z,25.33
2022-10-23T02:37:02.687Z,25.33
2022-10-23T02:39:34.624Z,24.23
2022-10-23T02:42:26.799Z,25.65
2022-10-23T02:45:12.827Z,25.48
2022-10-23T02:47:52.995Z,23.67
2022-10-23T02:50:52.102Z,23.60
2022-10-23T02:54:22.770Z,21.77
2022-10-23T02:57:18.901Z,18.77
2022-10-23T03:00:05.874Z,34.47
2022-10-23T03:02:43.497Z,25.02
2022-10-23T03:05:21.665Z,25.95
2022-10-23T03:07:53.771Z,32.22
2022-10-23T03:10:25.753Z,22.58
2022-10-23T03:12:57.855Z,23.60
2022-10-23T03:15:29.778Z,23.83
2022-10-23T03:18:01.751Z,31.15
2022-10-23T03:20:33.787Z,25.25
2022-10-23T03:23:05.755Z,24.48
2022-10-23T03:25:37.989Z,25.13
2022-10-23T03:28:09.874Z,26.35
2022-10-23T03:30:41.755Z,26.48
2022-10-23T03:33:14.009Z,32.17
2022-10-23T03:35:45.990Z,24.20
2022-10-23T03:38:17.910Z,33.10
2022-10-23T03:40:49.780Z,24.05
2022-10-23T03:43:21.715Z,27.55
2022-10-23T03:45:53.621Z,29.98
2022-10-23T03:48:25.521Z,27.17
2022-10-23T03:50:57.407Z,28.58
2022-10-23T03:53:29.325Z,24.08
2022-10-23T03:56:01.346Z,29.00
2022-10-23T03:58:33.304Z,31.20
2022-10-23T04:01:05.386Z,25.08
2022-10-23T04:03:37.356Z,30.15
2022-10-23T04:06:09.777Z,26.52
2022-10-23T04:08:44.406Z,30.30
2022-10-23T04:11:16.300Z,29.00
2022-10-23T04:13:48.276Z,33.70
2022-10-23T04:16:20.317Z,30.63
2022-10-23T04:18:52.721Z,24.58
2022-10-23T04:21:24.669Z,29.05
2022-10-23T04:23:56.626Z,25.92
2022-10-23T04:26:28.562Z,23.13
2022-10-23T04:29:00.484Z,30.83
2022-10-23T04:31:32.383Z,27.25
2022-10-23T04:36:56.176Z,24.27
2022-10-23T04:39:28.171Z,25.65
2022-10-23T04:42:00.117Z,26.02
2022-10-23T04:44:32.012Z,24.15
2022-10-23T04:47:03.991Z,25.67
2022-10-23T04:49:35.872Z,26.98
2022-10-23T04:52:07.737Z,30.38
2022-10-23T04:54:41.055Z,23.80
2022-10-23T04:57:12.935Z,26.40
2022-10-23T04:59:44.836Z,27.88
2022-10-23T05:02:16.723Z,27.65
2022-10-23T05:04:48.640Z,22.05
2022-10-23T05:10:12.398Z,23.23
2022-10-23T05:12:44.299Z,25.38
2022-10-23T05:15:16.415Z,18.48
2022-10-23T05:17:53.102Z,25.25
2022-10-23T05:20:30.733Z,23.00
2022-10-23T05:23:07.070Z,20.15
2022-10-23T05:25:39.006Z,24.08
2022-10-23T05:28:10.908Z,22.95
2022-10-23T05:30:43.404Z,25.40
2022-10-23T05:33:15.513Z,26.88
2022-10-23T05:35:47.427Z,24.73
2022-10-23T05:38:19.745Z,24.50
2022-10-23T05:40:53.169Z,22.40
2022-10-23T05:43:27.320Z,17.80
2022-10-23T05:45:59.629Z,21.95
2022-10-23T05:48:34.744Z,21.95
2022-10-23T05:51:09.903Z,23.38
2022-10-23T05:53:42.595Z,21.27
2022-10-23T05:56:14.677Z,28.92
2022-10-23T05:58:46.864Z,18.33
2022-10-23T06:01:19.086Z,21.58
2022-10-23T06:03:51.305Z,19.23
2022-10-23T06:06:23.207Z,21.25
2022-10-23T06:08:55.331Z,17.50
2022-10-23T06:11:27.261Z,20.60
2022-10-23T06:14:01.012Z,17.05
2022-10-23T06:16:33.315Z,21.23
2022-10-23T06:19:05.218Z,18.48
2022-10-23T06:21:38.889Z,22.52
2022-10-23T06:24:11.013Z,18.85
2022-10-23T06:26:43.083Z,16.30
2022-10-23T06:29:15.004Z,16.92
2022-10-23T06:31:46.928Z,12.88
2022-10-23T06:34:18.911Z,22.10
2022-10-23T06:36:51.016Z,17.75
2022-10-23T06:39:24.361Z,20.20
2022-10-23T06:41:58.164Z,19.20
2022-10-23T06:44:30.079Z,16.10
2022-10-23T06:47:02.372Z,16.52
2022-10-23T06:49:34.357Z,12.77
2022-10-23T06:52:11.085Z,16.42
2022-10-23T06:54:58.360Z,14.82
2022-10-23T06:57:30.282Z,17.52
2022-10-23T07:00:02.409Z,14.10
2022-10-23T07:02:34.349Z,21.45
2022-10-23T07:05:08.784Z,17.10
2022-10-23T07:07:44.701Z,19.38
2022-10-23T07:10:16.638Z,12.43
2022-10-23T07:12:49.041Z,14.75
2022-10-23T07:15:21.003Z,17.83
2022-10-23T07:17:53.028Z,22.65
2022-10-23T07:20:24.983Z,15.13
2022-10-23T07:22:57.637Z,11.52
2022-10-23T07:25:29.525Z,13.93
2022-10-23T07:28:01.424Z,12.85
2022-10-23T07:30:33.392Z,14.20
2022-10-23T07:33:05.339Z,16.13
2022-10-23T07:35:40.960Z,16.58
2022-10-23T07:38:13.938Z,19.52
2022-10-23T07:40:46.096Z,18.55
2022-10-23T07:43:21.160Z,12.98
2022-10-23T07:45:54.070Z,10.85
2022-10-23T07:48:27.365Z,13.88
2022-10-23T07:51:03.143Z,16.70
2022-10-23T07:53:35.909Z,11.90
2022-10-23T07:56:18.884Z,9.43
2022-10-23T07:58:53.854Z,14.02
2022-10-23T08:01:38.025Z,10.02
2022-10-23T08:04:11.004Z,10.23
2022-10-23T08:06:42.877Z,16.52
2022-10-23T08:09:14.824Z,11.75
2022-10-23T08:11:46.777Z,11.32
2022-10-23T08:14:18.719Z,12.10
2022-10-23T08:16:50.710Z,9.98
2022-10-23T08:19:22.768Z,14.35
2022-10-23T08:21:55.346Z,10.25
2022-10-23T08:24:27.399Z,7.13
2022-10-23T08:26:59.500Z,16.58
2022-10-23T08:29:31.494Z,12.57
2022-10-23T08:32:03.524Z,9.10
2022-10-23T08:34:37.988Z,8.48
2022-10-23T08:37:09.859Z,13.05
2022-10-23T08:39:41.794Z,15.40
2022-10-23T08:42:23.812Z,12.57
2022-10-23T08:45:04.425Z,13.70
2022-10-23T08:47:44.232Z,16.65
2022-10-23T08:50:49.721Z,41.63
2022-10-23T08:53:36.897Z,18.40
2022-10-23T08:56:31.728Z,11.98
2022-10-23T08:59:33.222Z,8.85
2022-10-23T09:02:18.108Z,10.57
2022-10-23T09:04:53.243Z,11.68
2022-10-23T09:08:04.574Z,11.60
2022-10-23T09:10:58.250Z,11.40
2022-10-23T09:14:07.100Z,20.75
2022-10-23T09:17:22.513Z,14.90
2022-10-23T09:20:06.441Z,11.82
2022-10-23T09:22:38.951Z,16.13
2022-10-23T09:25:17.940Z,10.57
2022-10-23T09:27:58.192Z,15.95
2022-10-23T09:30:39.495Z,16.20
2022-10-23T09:33:27.308Z,7.95
2022-10-23T09:36:05.378Z,7.15
2022-10-23T09:38:59.287Z,10.50
2022-10-23T09:41:37.463Z,12.50
2022-10-23T09:44:34.250Z,9.90
2022-10-23T09:47:06.088Z,6.55
2022-10-23T09:49:46.212Z,12.73
2022-10-23T09:52:23.803Z,13.20
2022-10-23T09:55:23.176Z,16.25
2022-10-23T09:57:56.151Z,10.90
2022-10-23T10:00:28.650Z,9.82
2022-10-23T10:03:05.276Z,7.55
2022-10-23T10:05:39.635Z,10.52
2022-10-23T10:08:20.323Z,8.77
2022-10-23T10:11:22.968Z,7.57
2022-10-23T10:14:28.506Z,15.50
2022-10-23T10:17:18.340Z,9.93
2022-10-23T10:20:28.830Z,7.53
2022-10-23T10:23:33.591Z,11.43
2022-10-23T10:26:44.770Z,11.63
2022-10-23T10:30:10.545Z,6.63
2022-10-23T10:32:57.462Z,8.07
2022-10-23T10:35:48.803Z,11.40
2022-10-23T10:38:48.099Z,9.75
2022-10-23T10:41:37.986Z,14.93
2022-10-23T10:44:23.003Z,10.52
2022-10-23T10:47:09.862Z,11.15
2022-10-23T10:50:26.851Z,12.43
2022-10-23T10:53:48.561Z,15.63
2022-10-23T10:56:23.544Z,9.30
2022-10-23T10:59:18.311Z,8.93
2022-10-23T11:02:11.922Z,6.53
2022-10-23T11:05:02.950Z,12.00
2022-10-23T11:07:41.695Z,7.93
2022-10-23T11:10:19.610Z,14.10
2022-10-23T11:12:52.381Z,6.68
2022-10-23T11:15:48.165Z,19.00
2022-10-23T11:18:28.670Z,9.73
2022-10-23T11:21:28.088Z,7.68
2022-10-23T11:24:11.639Z,12.63
2022-10-23T11:27:14.552Z,10.18
2022-10-23T11:30:07.822Z,11.30
2022-10-23T11:33:28.674Z,9.65
2022-10-23T11:36:15.056Z,9.10
2022-10-23T11:38:50.982Z,8.77
2022-10-23T11:41:34.018Z,12.90
2022-10-23T11:47:05.156Z,10.60
2022-10-23T11:49:37.104Z,14.55
2022-10-23T11:52:24.866Z,10.82
2022-10-23T11:55:27.554Z,10.32
2022-10-23T11:58:23.353Z,9.95
2022-10-23T12:01:06.102Z,8.30
2022-10-23T12:04:22.709Z,14.75
2022-10-23T12:07:02.899Z,10.35
2022-10-23T12:09:44.488Z,8.80
2022-10-23T12:12:28.561Z,9.35
2022-10-23T12:15:28.067Z,10.70
2022-10-23T12:18:16.516Z,8.50
2022-10-23T12:20:54.603Z,6.13
2022-10-23T12:24:03.674Z,7.95
2022-10-23T12:26:45.830Z,14.30
2022-10-23T12:30:04.089Z,9.90
2022-10-23T12:33:27.889Z,10.85
2022-10-23T12:36:37.053Z,8.82
2022-10-23T12:39:37.482Z,6.40
2022-10-23T12:42:27.140Z,13.25
2022-10-23T12:45:18.754Z,8.50
2022-10-23T12:47:52.098Z,9.65
2022-10-23T12:50:32.946Z,10.38
2022-10-23T12:53:08.375Z,6.05
2022-10-23T12:56:12.455Z,12.77
2022-10-23T12:58:55.057Z,14.43
2022-10-23T13:01:33.697Z,22.02
2022-10-23T13:04:16.595Z,11.40
2022-10-23T13:06:50.366Z,9.25
2022-10-23T13:09:28.044Z,9.55
2022-10-23T13:12:02.767Z,12.77
2022-10-23T13:14:42.149Z,18.23
2022-10-23T13:17:16.365Z,5.47
2022-10-23T13:19:48.281Z,11.45
2022-10-23T13:22:21.750Z,7.78
2022-10-23T13:24:53.638Z,12.20
2022-10-23T13:27:34.934Z,9.55
2022-10-23T13:30:35.713Z,11.43
2022-10-23T13:33:23.480Z,9.60
2022-10-23T13:36:18.831Z,7.07
2022-10-23T13:39:10.050Z,11.70
2022-10-23T13:41:46.047Z,10.48
2022-10-23T13:44:22.051Z,6.97
2022-10-23T13:46:54.071Z,10.05
2022-10-23T13:49:26.120Z,10.23
2022-10-23T13:51:59.147Z,8.07
2022-10-23T13:54:31.466Z,9.77
2022-10-23T13:57:03.390Z,13.80
2022-10-23T13:59:35.314Z,8.80
2022-10-23T14:02:23.181Z,4.22
2022-10-23T14:04:55.254Z,8.23
2022-10-23T14:07:27.152Z,9.45
2022-10-23T14:09:59.059Z,8.52
2022-10-23T14:12:30.976Z,4.85
2022-10-23T14:15:02.933Z,4.22
2022-10-23T14:17:35.720Z,8.07
2022-10-23T14:20:08.749Z,9.02
2022-10-23T14:22:40.787Z,8.63
2022-10-23T14:25:12.953Z,8.30
2022-10-23T14:27:45.301Z,6.65
2022-10-23T14:30:17.335Z,7.30
2022-10-23T14:32:50.058Z,9.35
2022-10-23T14:35:22.192Z,8.93
2022-10-23T14:37:54.061Z,9.35
2022-10-23T14:40:26.344Z,6.82
2022-10-23T14:42:58.328Z,6.90
2022-10-23T14:45:30.245Z,10.90
2022-10-23T14:48:02.583Z,10.98
2022-10-23T14:50:37.555Z,7.18
2022-10-23T14:53:09.434Z,6.53
2022-10-23T14:55:41.565Z,12.57
2022-10-23T14:58:13.542Z,5.15
2022-10-23T15:00:45.469Z,4.40
2022-10-23T15:03:18.320Z,7.78
2022-10-23T15:05:50.332Z,12.77
2022-10-23T15:08:23.229Z,7.53
2022-10-23T15:10:55.260Z,7.43
2022-10-23T15:13:27.400Z,7.35
2022-10-23T15:16:06.013Z,8.88
2022-10-23T15:21:30.039Z,35.42
2022-10-23T15:24:02.530Z,11.02
2022-10-23T15:26:34.514Z,7.40
2022-10-23T15:29:06.726Z,6.90
2022-10-23T15:31:38.689Z,9.77
2022-10-23T15:34:18.820Z,7.53
2022-10-23T15:36:51.807Z,5.57
2022-10-23T15:39:27.726Z,10.63
2022-10-23T15:42:00.340Z,3.65
2022-10-23T15:44:33.682Z,13.05
2022-10-23T15:47:05.570Z,7.20
2022-10-23T15:49:38.276Z,8.23
2022-10-23T15:52:11.179Z,7.43
2022-10-23T15:54:43.304Z,13.13
2022-10-23T15:57:15.230Z,6.57
2022-10-23T15:59:47.944Z,7.38
2022-10-23T16:02:20.165Z,7.75
2022-10-23T16:04:52.226Z,5.40
2022-10-23T16:07:24.243Z,7.45
2022-10-23T16:09:56.284Z,6.80
2022-10-23T16:12:28.585Z,10.45
2022-10-23T16:15:00.557Z,4.18
2022-10-23T16:17:32.480Z,5.10
2022-10-23T16:20:04.916Z,4.90
2022-10-23T16:22:40.150Z,6.85
2022-10-23T16:25:14.922Z,5.57
2022-10-23T16:27:47.311Z,5.35
2022-10-23T16:30:21.284Z,8.48
2022-10-23T16:32:54.893Z,26.60
2022-10-23T16:35:26.999Z,12.02
2022-10-23T16:37:58.967Z,6.53
2022-10-23T16:40:31.455Z,9.10
2022-10-23T16:43:03.682Z,8.05
2022-10-23T16:45:37.721Z,7.03
2022-10-23T16:48:09.841Z,11.05
2022-10-23T16:50:42.115Z,4.93
2022-10-23T16:53:14.028Z,13.30
2022-10-23T16:55:45.967Z,3.72
2022-10-23T16:58:17.896Z,8.57
2022-10-23T17:01:23.532Z,5.85
2022-10-23T17:03:57.006Z,7.25
2022-10-23T17:06:31.924Z,41.83
2022-10-23T17:09:05.885Z,6.47
2022-10-23T17:11:40.239Z,6.03
2022-10-23T17:14:17.514Z,5.85
2022-10-23T17:16:52.170Z,8.02
2022-10-23T17:19:43.868Z,12.80
2022-10-23T17:22:16.893Z,6.63
2022-10-23T17:24:51.554Z,7.25
2022-10-23T17:27:25.826Z,8.48
2022-10-23T17:29:58.229Z,6.53
2022-10-23T17:32:30.156Z,4.93
2022-10-23T17:35:05.377Z,4.15
2022-10-23T17:37:37.336Z,8.18
2022-10-23T17:40:09.835Z,6.20
2022-10-23T17:42:41.940Z,8.93
2022-10-23T17:45:14.041Z,5.85
2022-10-23T17:47:45.928Z,8.40
2022-10-23T17:50:17.938Z,11.35
2022-10-23T17:52:49.891Z,4.95
2022-10-23T17:55:21.854Z,6.90
2022-10-23T17:57:53.792Z,10.63
2022-10-23T18:00:26.048Z,7.78
2022-10-23T18:02:57.964Z,6.65
2022-10-23T18:05:32.935Z,4.15
2022-10-23T18:08:05.102Z,4.47
2022-10-23T18:10:37.121Z,2.72
2022-10-23T18:13:09.069Z,3.53
2022-10-23T18:15:41.079Z,9.05
2022-10-23T18:18:12.989Z,4.70
2022-10-23T18:20:44.955Z,9.32
2022-10-23T18:23:16.886Z,4.57
2022-10-23T18:25:49.236Z,5.90
2022-10-23T18:28:21.254Z,4.43
2022-10-23T18:30:56.086Z,8.85
2022-10-23T18:33:29.074Z,3.78
2022-10-23T18:36:01.016Z,2.92
2022-10-23T18:38:32.966Z,5.10
2022-10-23T18:41:04.919Z,4.15
2022-10-23T18:43:43.633Z,7.80
2022-10-23T18:46:16.391Z,4.23
2022-10-23T18:48:50.976Z,5.05
2022-10-23T18:51:28.624Z,7.85
2022-10-23T18:54:06.598Z,5.15
2022-10-23T18:56:39.855Z,4.90
2022-10-23T18:59:16.500Z,11.88
2022-10-23T19:01:49.315Z,7.80
2022-10-23T19:04:21.481Z,8.20
2022-10-23T19:06:53.719Z,10.25
2022-10-23T19:09:25.686Z,10.88
2022-10-23T19:11:58.215Z,10.48
2022-10-23T19:14:30.198Z,11.60
2022-10-23T19:17:32.431Z,5.25
2022-10-23T19:20:13.604Z,6.22
2022-10-23T19:22:49.100Z,6.97
2022-10-23T19:25:31.979Z,5.32
2022-10-23T19:28:04.701Z,5.00
2022-10-23T19:30:36.870Z,2.97
2022-10-23T19:33:08.780Z,5.88
2022-10-23T19:35:40.692Z,7.85
2022-10-23T19:38:12.620Z,9.65
2022-10-23T19:40:44.717Z,6.15
2022-10-23T19:43:16.653Z,11.25
2022-10-23T19:45:55.896Z,6.15
2022-10-23T19:48:27.783Z,11.73
2022-10-23T19:50:59.772Z,5.25
2022-10-23T19:53:31.687Z,3.95
2022-10-23T19:56:09.189Z,5.63
2022-10-23T19:58:41.764Z,7.70
2022-10-23T20:01:18.657Z,6.53
2022-10-23T20:03:51.423Z,9.23
2022-10-23T20:06:28.408Z,7.65
2022-10-23T20:09:03.173Z,10.98
2022-10-23T20:11:38.103Z,10.32
2022-10-23T20:14:10.109Z,7.32
2022-10-23T20:16:45.400Z,5.28
2022-10-23T20:22:09.513Z,6.80
2022-10-23T20:24:42.454Z,6.22
2022-10-23T20:27:14.763Z,7.05
2022-10-23T20:29:46.831Z,5.88
2022-10-23T20:32:18.792Z,6.50
2022-10-23T20:34:50.805Z,6.82
2022-10-23T20:37:22.956Z,4.80
2022-10-23T20:39:55.633Z,6.20
2022-10-23T20:42:27.582Z,7.18
2022-10-23T20:44:59.546Z,7.25
2022-10-23T20:47:31.490Z,9.57
2022-10-23T20:50:03.729Z,5.30
2022-10-23T20:52:35.765Z,9.57
2022-10-23T20:55:08.096Z,6.93
2022-10-23T20:57:40.018Z,12.05
2022-10-23T21:00:12.368Z,12.35
2022-10-23T21:02:47.241Z,5.93
2022-10-23T21:05:21.819Z,7.05
2022-10-23T21:07:53.761Z,4.97
2022-10-23T21:10:25.895Z,4.57
2022-10-23T21:12:57.822Z,6.10
2022-10-23T21:15:29.816Z,3.58
2022-10-23T21:18:13.036Z,7.10
2022-10-23T21:20:55.014Z,4.75
2022-10-23T21:23:29.140Z,8.80
2022-10-23T21:26:06.994Z,6.82
2022-10-23T21:28:41.781Z,9.77
2022-10-23T21:31:24.163Z,14.70
2022-10-23T21:33:56.316Z,10.45
2022-10-23T21:36:31.059Z,4.90
2022-10-23T21:39:03.978Z,9.18
2022-10-23T21:41:35.948Z,6.13
2022-10-23T21:44:08.032Z,7.45
2022-10-23T21:46:41.725Z,3.90
2022-10-23T21:49:13.795Z,8.75
2022-10-23T21:51:47.319Z,12.88
2022-10-23T21:54:19.305Z,4.18
2022-10-23T21:56:53.950Z,5.72
2022-10-23T21:59:30.022Z,6.32
2022-10-23T22:02:04.188Z,6.05
2022-10-23T22:04:36.366Z,8.80
2022-10-23T22:07:10.880Z,4.32
2022-10-23T22:09:45.353Z,8.10
2022-10-23T22:12:17.278Z,5.32
2022-10-23T22:14:49.288Z,8.65
2022-10-23T22:17:21.191Z,5.68
2022-10-23T22:19:53.152Z,7.60
2022-10-23T22:22:25.145Z,6.22
2022-10-23T22:24:57.093Z,6.00
2022-10-23T22:27:29.049Z,10.63
2022-10-23T22:30:03.808Z,9.38
2022-10-23T22:32:36.033Z,7.15
2022-10-23T22:35:08.335Z,9.45
2022-10-23T22:37:40.228Z,9.23
2022-10-23T22:40:13.052Z,8.20
2022-10-23T22:42:45.288Z,10.02
2022-10-23T22:45:17.471Z,13.00
2022-10-23T22:47:49.357Z,8.15
2022-10-23T22:50:21.300Z,8.25
2022-10-23T22:52:53.205Z,7.80
2022-10-23T22:55:25.131Z,9.73
2022-10-23T22:57:57.021Z,5.53
2022-10-23T23:00:29.088Z,12.50
2022-10-23T23:03:01.119Z,6.53
2022-10-23T23:05:33.459Z,7.32
2022-10-23T23:08:05.505Z,10.95
2022-10-23T23:10:37.695Z,5.20
2022-10-23T23:13:09.647Z,4.43
2022-10-23T23:15:41.608Z,6.13
2022-10-23T23:18:13.677Z,7.53
2022-10-23T23:20:45.625Z,5.72
2022-10-23T23:23:18.084Z,9.98
2022-10-23T23:25:50.559Z,10.60
2022-10-23T23:28:22.823Z,7.78
2022-10-23T23:31:14.072Z,7.47
2022-10-23T23:33:46.337Z,9.27
2022-10-23T23:36:25.649Z,5.97
2022-10-23T23:38:58.527Z,6.97
2022-10-23T23:41:30.694Z,8.00
2022-10-23T23:44:02.603Z,4.43
2022-10-23T23:46:34.592Z,6.38
2022-10-23T23:49:06.537Z,11.38
2022-10-23T23:51:38.451Z,10.77
2022-10-23T23:54:10.458Z,6.22
2022-10-23T23:56:42.451Z,3.58
2022-10-23T23:59:14.366Z,3.83
